sensor_id;sensor_type;location;lat;lon;timestamp;P1;durP1;ratioP1;P2;durP2;ratioP2
10493;SDS011;5294;49.410;8.698;2022-12-18T00:01:47;54.00;;;27.27;;
10493;SDS011;5294;49.410;8.698;2022-12-18T00:04:20;61.80;;;27.50;;
10493;SDS011;5294;49.410;8.698;2022-12-18T00:06:46;50.50;;;26.40;;
10493;SDS011;5294;49.410;8.698;2022-12-18T00:09:15;54.03;;;27.60;;
10493;SDS011;5294;49.410;8.698;2022-12-18T00:11:41;47.10;;;24.53;;
10493;SDS011;5294;49.410;8.698;2022-12-18T00:14:09;53.23;;;25.97;;
10493;SDS011;5294;49.410;8.698;2022-12-18T00:16:39;51.70;;;26.00;;
10493;SDS011;5294;49.410;8.698;2022-12-18T00:19:05;52.53;;;27.23;;
10493;SDS011;5294;49.410;8.698;2022-12-18T00:21:32;50.27;;;24.50;;
10493;SDS011;5294;49.410;8.698;2022-12-18T00:23:59;53.37;;;26.47;;
10493;SDS011;5294;49.410;8.698;2022-12-18T00:26:26;49.63;;;26.33;;
10493;SDS011;5294;49.410;8.698;2022-12-18T00:28:52;53.57;;;26.23;;
10493;SDS011;5294;49.410;8.698;2022-12-18T00:31:23;55.90;;;26.03;;
10493;SDS011;5294;49.410;8.698;2022-12-18T00:33:49;52.53;;;26.63;;
10493;SDS011;5294;49.410;8.698;2022-12-18T00:36:20;52.30;;;25.53;;
10493;SDS011;5294;49.410;8.698;2022-12-18T00:38:46;54.33;;;25.50;;
10493;SDS011;5294;49.410;8.698;2022-12-18T00:41:15;49.60;;;24.67;;
10493;SDS011;5294;49.410;8.698;2022-12-18T00:44:02;50.03;;;25.13;;
10493;SDS011;5294;49.410;8.698;2022-12-18T00:46:28;50.90;;;26.30;;
10493;SDS011;5294;49.410;8.698;2022-12-18T00:48:54;55.73;;;26.97;;
10493;SDS011;5294;49.410;8.698;2022-12-18T00:51:23;50.00;;;26.23;;
10493;SDS011;5294;49.410;8.698;2022-12-18T00:53:49;53.13;;;28.13;;
10493;SDS011;5294;49.410;8.698;2022-12-18T00:56:17;49.43;;;25.87;;
10493;SDS011;5294;49.410;8.698;2022-12-18T00:58:45;53.40;;;26.83;;
10493;SDS011;5294;49.410;8.698;2022-12-18T01:01:11;57.07;;;26.67;;
10493;SDS011;5294;49.410;8.698;2022-12-18T01:03:37;62.90;;;27.73;;
10493;SDS011;5294;49.410;8.698;2022-12-18T01:06:06;60.80;;;28.17;;
10493;SDS011;5294;49.410;8.698;2022-12-18T01:08:35;54.03;;;26.83;;
10493;SDS011;5294;49.410;8.698;2022-12-18T01:11:06;60.53;;;28.17;;
10493;SDS011;5294;49.410;8.698;2022-12-18T01:13:32;55.07;;;26.97;;
10493;SDS011;5294;49.410;8.698;2022-12-18T01:15:58;51.43;;;25.93;;
10493;SDS011;5294;49.410;8.698;2022-12-18T01:18:29;49.73;;;25.70;;
10493;SDS011;5294;49.410;8.698;2022-12-18T01:20:55;54.93;;;25.27;;
10493;SDS011;5294;49.410;8.698;2022-12-18T01:23:21;51.90;;;26.63;;
10493;SDS011;5294;49.410;8.698;2022-12-18T01:25:47;53.17;;;27.50;;
10493;SDS011;5294;49.410;8.698;2022-12-18T01:28:13;47.57;;;26.47;;
10493;SDS011;5294;49.410;8.698;2022-12-18T01:30:39;55.30;;;26.80;;
10493;SDS011;5294;49.410;8.698;2022-12-18T01:33:07;49.10;;;26.30;;
10493;SDS011;5294;49.410;8.698;2022-12-18T01:35:42;47.23;;;26.23;;
10493;SDS011;5294;49.410;8.698;2022-12-18T01:38:08;48.50;;;25.50;;
10493;SDS011;5294;49.410;8.698;2022-12-18T01:40:34;47.10;;;25.77;;
10493;SDS011;5294;49.410;8.698;2022-12-18T01:43:03;53.90;;;25.97;;
10493;SDS011;5294;49.410;8.698;2022-12-18T01:45:30;53.43;;;26.13;;
10493;SDS011;5294;49.410;8.698;2022-12-18T01:48:00;51.73;;;26.87;;
10493;SDS011;5294;49.410;8.698;2022-12-18T01:55:30;55.83;;;27.63;;
10493;SDS011;5294;49.410;8.698;2022-12-18T01:57:58;53.17;;;28.40;;
10493;SDS011;5294;49.410;8.698;2022-12-18T02:00:27;55.87;;;27.53;;
10493;SDS011;5294;49.410;8.698;2022-12-18T02:02:53;55.07;;;26.13;;
10493;SDS011;5294;49.410;8.698;2022-12-18T02:10:54;52.83;;;25.30;;
10493;SDS011;5294;49.410;8.698;2022-12-18T02:13:31;52.70;;;26.07;;
10493;SDS011;5294;49.410;8.698;2022-12-18T02:18:44;53.63;;;25.87;;
10493;SDS011;5294;49.410;8.698;2022-12-18T02:26:40;57.53;;;27.20;;
10493;SDS011;5294;49.410;8.698;2022-12-18T02:29:11;58.47;;;28.00;;
10493;SDS011;5294;49.410;8.698;2022-12-18T02:31:49;56.37;;;27.37;;
10493;SDS011;5294;49.410;8.698;2022-12-18T02:34:22;56.10;;;26.93;;
10493;SDS011;5294;49.410;8.698;2022-12-18T02:36:50;61.10;;;26.90;;
10493;SDS011;5294;49.410;8.698;2022-12-18T02:39:16;48.93;;;24.93;;
10493;SDS011;5294;49.410;8.698;2022-12-18T02:41:46;56.87;;;25.17;;
10493;SDS011;5294;49.410;8.698;2022-12-18T02:44:12;51.27;;;24.63;;
10493;SDS011;5294;49.410;8.698;2022-12-18T02:46:51;55.40;;;25.47;;
10493;SDS011;5294;49.410;8.698;2022-12-18T02:51:57;51.63;;;25.43;;
10493;SDS011;5294;49.410;8.698;2022-12-18T02:56:50;49.37;;;25.17;;
10493;SDS011;5294;49.410;8.698;2022-12-18T02:59:34;51.37;;;25.07;;
10493;SDS011;5294;49.410;8.698;2022-12-18T03:02:11;52.87;;;29.10;;
10493;SDS011;5294;49.410;8.698;2022-12-18T03:04:47;53.67;;;26.63;;
10493;SDS011;5294;49.410;8.698;2022-12-18T03:07:23;53.30;;;26.17;;
10493;SDS011;5294;49.410;8.698;2022-12-18T03:09:51;56.03;;;26.93;;
10493;SDS011;5294;49.410;8.698;2022-12-18T03:12:21;50.87;;;26.40;;
10493;SDS011;5294;49.410;8.698;2022-12-18T03:17:25;49.30;;;25.13;;
10493;SDS011;5294;49.410;8.698;2022-12-18T03:19:52;59.93;;;28.70;;
10493;SDS011;5294;49.410;8.698;2022-12-18T03:22:19;59.47;;;27.70;;
10493;SDS011;5294;49.410;8.698;2022-12-18T03:24:49;60.90;;;27.57;;
10493;SDS011;5294;49.410;8.698;2022-12-18T03:27:18;62.10;;;28.37;;
10493;SDS011;5294;49.410;8.698;2022-12-18T03:30:21;64.43;;;30.10;;
10493;SDS011;5294;49.410;8.698;2022-12-18T03:35:32;54.80;;;26.57;;
10493;SDS011;5294;49.410;8.698;2022-12-18T03:38:01;54.10;;;26.13;;
10493;SDS011;5294;49.410;8.698;2022-12-18T03:40:35;55.23;;;27.17;;
10493;SDS011;5294;49.410;8.698;2022-12-18T03:43:11;54.27;;;25.47;;
10493;SDS011;5294;49.410;8.698;2022-12-18T03:45:46;57.27;;;26.97;;
10493;SDS011;5294;49.410;8.698;2022-12-18T03:54:27;51.57;;;24.80;;
10493;SDS011;5294;49.410;8.698;2022-12-18T03:56:22;55.43;;;26.63;;
10493;SDS011;5294;49.410;8.698;2022-12-18T03:58:50;56.63;;;26.13;;
10493;SDS011;5294;49.410;8.698;2022-12-18T04:01:18;57.40;;;26.03;;
10493;SDS011;5294;49.410;8.698;2022-12-18T04:03:46;54.13;;;26.90;;
10493;SDS011;5294;49.410;8.698;2022-12-18T04:06:14;49.80;;;25.47;;
10493;SDS011;5294;49.410;8.698;2022-12-18T04:08:43;53.27;;;25.97;;
10493;SDS011;5294;49.410;8.698;2022-12-18T04:11:09;55.80;;;25.93;;
10493;SDS011;5294;49.410;8.698;2022-12-18T04:13:36;47.03;;;24.73;;
10493;SDS011;5294;49.410;8.698;2022-12-18T04:16:02;54.07;;;25.77;;
10493;SDS011;5294;49.410;8.698;2022-12-18T04:18:28;50.40;;;25.37;;
10493;SDS011;5294;49.410;8.698;2022-12-18T04:20:54;48.23;;;24.83;;
10493;SDS011;5294;49.410;8.698;2022-12-18T04:23:20;49.53;;;24.57;;
10493;SDS011;5294;49.410;8.698;2022-12-18T04:25:47;51.07;;;24.63;;
10493;SDS011;5294;49.410;8.698;2022-12-18T04:28:18;46.70;;;24.97;;
10493;SDS011;5294;49.410;8.698;2022-12-18T04:30:46;50.23;;;25.37;;
10493;SDS011;5294;49.410;8.698;2022-12-18T04:33:12;47.57;;;24.53;;
10493;SDS011;5294;49.410;8.698;2022-12-18T04:35:39;48.30;;;23.37;;
10493;SDS011;5294;49.410;8.698;2022-12-18T04:38:06;48.37;;;23.80;;
10493;SDS011;5294;49.410;8.698;2022-12-18T04:40:36;46.60;;;24.40;;
10493;SDS011;5294;49.410;8.698;2022-12-18T04:43:03;47.33;;;27.20;;
10493;SDS011;5294;49.410;8.698;2022-12-18T04:45:32;50.67;;;25.03;;
10493;SDS011;5294;49.410;8.698;2022-12-18T04:47:58;46.30;;;24.43;;
10493;SDS011;5294;49.410;8.698;2022-12-18T04:50:27;44.77;;;22.83;;
10493;SDS011;5294;49.410;8.698;2022-12-18T04:52:53;52.80;;;25.57;;
10493;SDS011;5294;49.410;8.698;2022-12-18T04:55:19;47.03;;;24.33;;
10493;SDS011;5294;49.410;8.698;2022-12-18T04:57:45;48.10;;;23.73;;
10493;SDS011;5294;49.410;8.698;2022-12-18T05:00:11;50.27;;;23.90;;
10493;SDS011;5294;49.410;8.698;2022-12-18T05:02:37;56.60;;;26.13;;
10493;SDS011;5294;49.410;8.698;2022-12-18T05:05:04;51.53;;;24.93;;
10493;SDS011;5294;49.410;8.698;2022-12-18T05:07:30;46.87;;;24.07;;
10493;SDS011;5294;49.410;8.698;2022-12-18T05:09:56;53.23;;;23.87;;
10493;SDS011;5294;49.410;8.698;2022-12-18T05:12:22;50.10;;;23.70;;
10493;SDS011;5294;49.410;8.698;2022-12-18T05:14:48;51.37;;;24.33;;
10493;SDS011;5294;49.410;8.698;2022-12-18T05:17:14;54.33;;;24.60;;
10493;SDS011;5294;49.410;8.698;2022-12-18T05:19:42;51.27;;;24.60;;
10493;SDS011;5294;49.410;8.698;2022-12-18T05:22:08;48.97;;;23.07;;
10493;SDS011;5294;49.410;8.698;2022-12-18T05:24:34;52.10;;;23.27;;
10493;SDS011;5294;49.410;8.698;2022-12-18T05:27:00;48.70;;;22.60;;
10493;SDS011;5294;49.410;8.698;2022-12-18T05:29:29;52.73;;;24.33;;
10493;SDS011;5294;49.410;8.698;2022-12-18T05:31:55;54.10;;;23.97;;
10493;SDS011;5294;49.410;8.698;2022-12-18T05:34:21;49.20;;;25.07;;
10493;SDS011;5294;49.410;8.698;2022-12-18T05:36:47;59.13;;;26.03;;
10493;SDS011;5294;49.410;8.698;2022-12-18T05:39:15;44.27;;;24.27;;
10493;SDS011;5294;49.410;8.698;2022-12-18T05:41:41;46.20;;;24.07;;
10493;SDS011;5294;49.410;8.698;2022-12-18T05:44:07;47.77;;;24.43;;
10493;SDS011;5294;49.410;8.698;2022-12-18T05:46:35;54.30;;;25.40;;
10493;SDS011;5294;49.410;8.698;2022-12-18T05:49:06;50.03;;;24.50;;
10493;SDS011;5294;49.410;8.698;2022-12-18T05:51:34;50.90;;;24.23;;
10493;SDS011;5294;49.410;8.698;2022-12-18T05:54:02;48.87;;;23.80;;
10493;SDS011;5294;49.410;8.698;2022-12-18T05:56:30;47.13;;;23.33;;
10493;SDS011;5294;49.410;8.698;2022-12-18T05:58:56;44.67;;;25.07;;
10493;SDS011;5294;49.410;8.698;2022-12-18T06:01:25;47.70;;;23.57;;
10493;SDS011;5294;49.410;8.698;2022-12-18T06:03:51;40.03;;;23.77;;
10493;SDS011;5294;49.410;8.698;2022-12-18T06:06:23;46.60;;;24.37;;
10493;SDS011;5294;49.410;8.698;2022-12-18T06:08:50;43.00;;;24.37;;
10493;SDS011;5294;49.410;8.698;2022-12-18T06:11:17;41.60;;;23.90;;
10493;SDS011;5294;49.410;8.698;2022-12-18T06:13:43;42.93;;;24.97;;
10493;SDS011;5294;49.410;8.698;2022-12-18T06:16:12;40.07;;;24.30;;
10493;SDS011;5294;49.410;8.698;2022-12-18T06:18:38;46.07;;;25.60;;
10493;SDS011;5294;49.410;8.698;2022-12-18T06:21:04;52.60;;;27.63;;
10493;SDS011;5294;49.410;8.698;2022-12-18T06:23:32;44.83;;;25.57;;
10493;SDS011;5294;49.410;8.698;2022-12-18T06:25:58;52.47;;;24.40;;
10493;SDS011;5294;49.410;8.698;2022-12-18T06:28:28;48.67;;;25.87;;
10493;SDS011;5294;49.410;8.698;2022-12-18T06:30:54;43.07;;;23.47;;
10493;SDS011;5294;49.410;8.698;2022-12-18T06:33:20;47.53;;;22.70;;
10493;SDS011;5294;49.410;8.698;2022-12-18T06:35:51;50.53;;;24.90;;
10493;SDS011;5294;49.410;8.698;2022-12-18T06:38:16;44.50;;;23.37;;
10493;SDS011;5294;49.410;8.698;2022-12-18T06:40:42;50.20;;;24.57;;
10493;SDS011;5294;49.410;8.698;2022-12-18T06:43:11;47.87;;;24.17;;
10493;SDS011;5294;49.410;8.698;2022-12-18T06:45:37;46.70;;;24.97;;
10493;SDS011;5294;49.410;8.698;2022-12-18T06:48:05;45.60;;;22.20;;
10493;SDS011;5294;49.410;8.698;2022-12-18T06:50:31;44.53;;;22.37;;
10493;SDS011;5294;49.410;8.698;2022-12-18T06:52:57;46.93;;;22.63;;
10493;SDS011;5294;49.410;8.698;2022-12-18T06:55:23;45.43;;;22.47;;
10493;SDS011;5294;49.410;8.698;2022-12-18T06:57:49;49.70;;;22.07;;
10493;SDS011;5294;49.410;8.698;2022-12-18T07:00:15;54.17;;;22.60;;
10493;SDS011;5294;49.410;8.698;2022-12-18T07:02:41;42.70;;;22.57;;
10493;SDS011;5294;49.410;8.698;2022-12-18T07:05:09;46.83;;;23.80;;
10493;SDS011;5294;49.410;8.698;2022-12-18T07:07:35;48.30;;;22.73;;
10493;SDS011;5294;49.410;8.698;2022-12-18T07:10:02;43.13;;;22.13;;
10493;SDS011;5294;49.410;8.698;2022-12-18T07:12:30;54.50;;;23.63;;
10493;SDS011;5294;49.410;8.698;2022-12-18T07:15:00;42.40;;;21.13;;
10493;SDS011;5294;49.410;8.698;2022-12-18T07:17:27;40.37;;;21.30;;
10493;SDS011;5294;49.410;8.698;2022-12-18T07:19:54;47.83;;;22.43;;
10493;SDS011;5294;49.410;8.698;2022-12-18T07:22:20;49.40;;;23.33;;
10493;SDS011;5294;49.410;8.698;2022-12-18T07:24:46;43.57;;;22.00;;
10493;SDS011;5294;49.410;8.698;2022-12-18T07:27:15;49.83;;;23.83;;
10493;SDS011;5294;49.410;8.698;2022-12-18T07:29:43;45.97;;;22.40;;
10493;SDS011;5294;49.410;8.698;2022-12-18T07:32:09;48.63;;;23.80;;
10493;SDS011;5294;49.410;8.698;2022-12-18T07:34:35;44.13;;;21.57;;
10493;SDS011;5294;49.410;8.698;2022-12-18T07:37:04;46.00;;;22.63;;
10493;SDS011;5294;49.410;8.698;2022-12-18T07:39:32;48.33;;;23.00;;
10493;SDS011;5294;49.410;8.698;2022-12-18T07:41:58;41.57;;;22.03;;
10493;SDS011;5294;49.410;8.698;2022-12-18T07:44:43;52.97;;;25.33;;
10493;SDS011;5294;49.410;8.698;2022-12-18T07:47:11;52.97;;;24.30;;
10493;SDS011;5294;49.410;8.698;2022-12-18T07:49:37;44.17;;;22.63;;
10493;SDS011;5294;49.410;8.698;2022-12-18T07:52:05;52.23;;;23.40;;
10493;SDS011;5294;49.410;8.698;2022-12-18T07:54:31;53.37;;;24.20;;
10493;SDS011;5294;49.410;8.698;2022-12-18T07:56:57;54.57;;;24.97;;
10493;SDS011;5294;49.410;8.698;2022-12-18T07:59:26;54.10;;;25.90;;
10493;SDS011;5294;49.410;8.698;2022-12-18T08:01:52;46.00;;;22.87;;
10493;SDS011;5294;49.410;8.698;2022-12-18T08:04:18;43.00;;;22.17;;
10493;SDS011;5294;49.410;8.698;2022-12-18T08:06:46;43.97;;;23.90;;
10493;SDS011;5294;49.410;8.698;2022-12-18T08:09:14;41.30;;;22.60;;
10493;SDS011;5294;49.410;8.698;2022-12-18T08:11:43;45.40;;;22.20;;
10493;SDS011;5294;49.410;8.698;2022-12-18T08:14:12;40.50;;;23.23;;
10493;SDS011;5294;49.410;8.698;2022-12-18T08:16:39;43.53;;;24.23;;
10493;SDS011;5294;49.410;8.698;2022-12-18T08:19:05;37.67;;;22.47;;
10493;SDS011;5294;49.410;8.698;2022-12-18T08:21:31;41.57;;;23.00;;
10493;SDS011;5294;49.410;8.698;2022-12-18T08:23:58;42.20;;;23.07;;
10493;SDS011;5294;49.410;8.698;2022-12-18T08:26:25;39.07;;;23.23;;
10493;SDS011;5294;49.410;8.698;2022-12-18T08:28:54;39.53;;;22.63;;
10493;SDS011;5294;49.410;8.698;2022-12-18T08:31:20;38.20;;;22.50;;
10493;SDS011;5294;49.410;8.698;2022-12-18T08:33:49;39.23;;;23.23;;
10493;SDS011;5294;49.410;8.698;2022-12-18T08:36:18;33.87;;;20.80;;
10493;SDS011;5294;49.410;8.698;2022-12-18T08:38:47;34.50;;;20.67;;
10493;SDS011;5294;49.410;8.698;2022-12-18T08:41:15;35.03;;;21.80;;
10493;SDS011;5294;49.410;8.698;2022-12-18T08:43:44;30.73;;;18.20;;
10493;SDS011;5294;49.410;8.698;2022-12-18T08:46:33;36.90;;;20.10;;
10493;SDS011;5294;49.410;8.698;2022-12-18T08:49:00;41.10;;;23.30;;
10493;SDS011;5294;49.410;8.698;2022-12-18T08:51:26;35.43;;;21.13;;
10493;SDS011;5294;49.410;8.698;2022-12-18T08:53:52;34.60;;;19.17;;
10493;SDS011;5294;49.410;8.698;2022-12-18T08:56:18;34.23;;;21.40;;
10493;SDS011;5294;49.410;8.698;2022-12-18T08:58:44;38.57;;;21.27;;
10493;SDS011;5294;49.410;8.698;2022-12-18T09:01:12;38.50;;;22.50;;
10493;SDS011;5294;49.410;8.698;2022-12-18T09:03:38;33.97;;;20.10;;
10493;SDS011;5294;49.410;8.698;2022-12-18T09:06:04;37.23;;;20.60;;
10493;SDS011;5294;49.410;8.698;2022-12-18T09:08:31;35.60;;;20.23;;
10493;SDS011;5294;49.410;8.698;2022-12-18T09:10:59;35.43;;;20.23;;
10493;SDS011;5294;49.410;8.698;2022-12-18T09:13:28;37.70;;;21.97;;
10493;SDS011;5294;49.410;8.698;2022-12-18T09:15:56;38.03;;;21.17;;
10493;SDS011;5294;49.410;8.698;2022-12-18T09:18:23;31.37;;;19.77;;
10493;SDS011;5294;49.410;8.698;2022-12-18T09:20:52;33.43;;;18.77;;
10493;SDS011;5294;49.410;8.698;2022-12-18T09:23:18;36.63;;;20.93;;
10493;SDS011;5294;49.410;8.698;2022-12-18T09:25:44;29.30;;;18.57;;
10493;SDS011;5294;49.410;8.698;2022-12-18T09:28:16;36.87;;;21.20;;
10493;SDS011;5294;49.410;8.698;2022-12-18T09:30:43;39.73;;;22.50;;
10493;SDS011;5294;49.410;8.698;2022-12-18T09:33:12;31.43;;;18.77;;
10493;SDS011;5294;49.410;8.698;2022-12-18T09:35:42;30.53;;;16.17;;
10493;SDS011;5294;49.410;8.698;2022-12-18T09:38:09;32.63;;;19.40;;
10493;SDS011;5294;49.410;8.698;2022-12-18T09:40:41;34.63;;;20.40;;
10493;SDS011;5294;49.410;8.698;2022-12-18T09:45:53;36.43;;;20.70;;
10493;SDS011;5294;49.410;8.698;2022-12-18T09:48:23;30.00;;;19.10;;
10493;SDS011;5294;49.410;8.698;2022-12-18T09:50:50;34.97;;;19.17;;
10493;SDS011;5294;49.410;8.698;2022-12-18T09:53:18;29.60;;;17.00;;
10493;SDS011;5294;49.410;8.698;2022-12-18T09:55:47;35.23;;;20.13;;
10493;SDS011;5294;49.410;8.698;2022-12-18T09:58:19;37.77;;;21.43;;
10493;SDS011;5294;49.410;8.698;2022-12-18T10:00:47;31.60;;;19.37;;
10493;SDS011;5294;49.410;8.698;2022-12-18T10:03:13;36.13;;;20.73;;
10493;SDS011;5294;49.410;8.698;2022-12-18T10:05:56;33.57;;;19.47;;
10493;SDS011;5294;49.410;8.698;2022-12-18T10:13:50;37.97;;;20.97;;
10493;SDS011;5294;49.410;8.698;2022-12-18T10:21:36;35.00;;;20.80;;
10493;SDS011;5294;49.410;8.698;2022-12-18T10:26:44;34.20;;;20.90;;
10493;SDS011;5294;49.410;8.698;2022-12-18T10:29:11;35.90;;;21.47;;
10493;SDS011;5294;49.410;8.698;2022-12-18T10:31:37;32.87;;;20.73;;
10493;SDS011;5294;49.410;8.698;2022-12-18T10:34:03;33.80;;;21.77;;
10493;SDS011;5294;49.410;8.698;2022-12-18T10:36:29;32.83;;;21.73;;
10493;SDS011;5294;49.410;8.698;2022-12-18T10:39:13;34.23;;;20.13;;
10493;SDS011;5294;49.410;8.698;2022-12-18T10:41:39;31.33;;;17.80;;
10493;SDS011;5294;49.410;8.698;2022-12-18T10:46:37;32.60;;;20.50;;
10493;SDS011;5294;49.410;8.698;2022-12-18T10:49:07;30.03;;;19.17;;
10493;SDS011;5294;49.410;8.698;2022-12-18T10:51:46;35.83;;;19.77;;
10493;SDS011;5294;49.410;8.698;2022-12-18T10:54:21;35.47;;;22.50;;
10493;SDS011;5294;49.410;8.698;2022-12-18T10:56:50;33.53;;;20.20;;
10493;SDS011;5294;49.410;8.698;2022-12-18T10:59:19;32.63;;;20.63;;
10493;SDS011;5294;49.410;8.698;2022-12-18T11:04:13;34.83;;;21.53;;
10493;SDS011;5294;49.410;8.698;2022-12-18T11:07:00;33.40;;;21.20;;
10493;SDS011;5294;49.410;8.698;2022-12-18T11:09:36;37.43;;;22.87;;
10493;SDS011;5294;49.410;8.698;2022-12-18T11:12:23;32.07;;;20.57;;
10493;SDS011;5294;49.410;8.698;2022-12-18T11:14:54;34.03;;;23.27;;
10493;SDS011;5294;49.410;8.698;2022-12-18T11:17:25;38.00;;;23.67;;
10493;SDS011;5294;49.410;8.698;2022-12-18T11:19:58;38.30;;;23.47;;
10493;SDS011;5294;49.410;8.698;2022-12-18T11:22:25;31.17;;;21.50;;
10493;SDS011;5294;49.410;8.698;2022-12-18T11:27:39;32.13;;;21.07;;
10493;SDS011;5294;49.410;8.698;2022-12-18T11:30:26;33.10;;;21.90;;
10493;SDS011;5294;49.410;8.698;2022-12-18T11:33:11;32.37;;;20.40;;
10493;SDS011;5294;49.410;8.698;2022-12-18T11:40:51;37.43;;;23.27;;
10493;SDS011;5294;49.410;8.698;2022-12-18T11:43:29;36.17;;;21.67;;
10493;SDS011;5294;49.410;8.698;2022-12-18T11:46:01;31.50;;;20.77;;
10493;SDS011;5294;49.410;8.698;2022-12-18T11:48:36;32.13;;;21.70;;
10493;SDS011;5294;49.410;8.698;2022-12-18T11:51:08;34.27;;;20.33;;
10493;SDS011;5294;49.410;8.698;2022-12-18T11:53:35;32.27;;;21.17;;
10493;SDS011;5294;49.410;8.698;2022-12-18T12:01:32;34.70;;;22.37;;
10493;SDS011;5294;49.410;8.698;2022-12-18T12:12:17;35.17;;;21.83;;
10493;SDS011;5294;49.410;8.698;2022-12-18T12:20:06;34.57;;;23.03;;
10493;SDS011;5294;49.410;8.698;2022-12-18T12:22:50;32.77;;;20.47;;
10493;SDS011;5294;49.410;8.698;2022-12-18T12:25:33;34.23;;;22.30;;
10493;SDS011;5294;49.410;8.698;2022-12-18T12:31:33;39.17;;;22.93;;
10493;SDS011;5294;49.410;8.698;2022-12-18T12:38:30;37.67;;;25.10;;
10493;SDS011;5294;49.410;8.698;2022-12-18T12:40:58;37.47;;;23.97;;
10493;SDS011;5294;49.410;8.698;2022-12-18T12:43:33;41.17;;;31.40;;
10493;SDS011;5294;49.410;8.698;2022-12-18T12:46:07;36.47;;;24.53;;
10493;SDS011;5294;49.410;8.698;2022-12-18T12:48:49;36.53;;;21.07;;
10493;SDS011;5294;49.410;8.698;2022-12-18T12:53:41;38.60;;;24.27;;
10493;SDS011;5294;49.410;8.698;2022-12-18T12:56:11;45.73;;;36.47;;
10493;SDS011;5294;49.410;8.698;2022-12-18T13:01:12;35.43;;;21.93;;
10493;SDS011;5294;49.410;8.698;2022-12-18T13:06:10;33.90;;;19.60;;
10493;SDS011;5294;49.410;8.698;2022-12-18T13:11:32;28.20;;;16.57;;
10493;SDS011;5294;49.410;8.698;2022-12-18T13:14:28;37.43;;;21.33;;
10493;SDS011;5294;49.410;8.698;2022-12-18T13:17:14;38.30;;;23.10;;
10493;SDS011;5294;49.410;8.698;2022-12-18T13:19:40;34.30;;;20.03;;
10493;SDS011;5294;49.410;8.698;2022-12-18T13:22:19;35.13;;;22.40;;
10493;SDS011;5294;49.410;8.698;2022-12-18T13:24:46;36.53;;;21.87;;
10493;SDS011;5294;49.410;8.698;2022-12-18T13:29:57;36.67;;;22.53;;
10493;SDS011;5294;49.410;8.698;2022-12-18T13:32:24;38.07;;;21.73;;
10493;SDS011;5294;49.410;8.698;2022-12-18T13:40:20;34.83;;;21.10;;
10493;SDS011;5294;49.410;8.698;2022-12-18T13:42:50;39.50;;;21.70;;
10493;SDS011;5294;49.410;8.698;2022-12-18T13:45:36;34.03;;;19.20;;
10493;SDS011;5294;49.410;8.698;2022-12-18T13:48:10;33.73;;;22.40;;
10493;SDS011;5294;49.410;8.698;2022-12-18T13:50:40;38.07;;;23.70;;
10493;SDS011;5294;49.410;8.698;2022-12-18T13:53:06;37.50;;;22.37;;
10493;SDS011;5294;49.410;8.698;2022-12-18T13:55:34;38.67;;;23.13;;
10493;SDS011;5294;49.410;8.698;2022-12-18T13:58:04;35.60;;;22.73;;
10493;SDS011;5294;49.410;8.698;2022-12-18T14:00:32;33.83;;;21.07;;
10493;SDS011;5294;49.410;8.698;2022-12-18T14:02:58;34.47;;;22.73;;
10493;SDS011;5294;49.410;8.698;2022-12-18T14:05:30;35.70;;;21.50;;
10493;SDS011;5294;49.410;8.698;2022-12-18T14:08:00;37.83;;;23.37;;
10493;SDS011;5294;49.410;8.698;2022-12-18T14:10:27;41.70;;;23.87;;
10493;SDS011;5294;49.410;8.698;2022-12-18T14:12:53;42.30;;;32.87;;
10493;SDS011;5294;49.410;8.698;2022-12-18T14:17:51;37.80;;;22.63;;
10493;SDS011;5294;49.410;8.698;2022-12-18T14:20:20;34.03;;;20.77;;
10493;SDS011;5294;49.410;8.698;2022-12-18T14:22:46;34.10;;;20.43;;
10493;SDS011;5294;49.410;8.698;2022-12-18T14:27:46;44.50;;;33.70;;
10493;SDS011;5294;49.410;8.698;2022-12-18T14:35:27;35.10;;;20.50;;
10493;SDS011;5294;49.410;8.698;2022-12-18T14:37:53;35.57;;;21.53;;
10493;SDS011;5294;49.410;8.698;2022-12-18T14:40:19;37.70;;;22.57;;
10493;SDS011;5294;49.410;8.698;2022-12-18T14:42:45;42.27;;;32.33;;
10493;SDS011;5294;49.410;8.698;2022-12-18T14:47:56;33.43;;;19.57;;
10493;SDS011;5294;49.410;8.698;2022-12-18T14:50:25;34.00;;;21.50;;
10493;SDS011;5294;49.410;8.698;2022-12-18T14:52:51;36.53;;;21.40;;
10493;SDS011;5294;49.410;8.698;2022-12-18T14:55:18;40.13;;;24.40;;
10493;SDS011;5294;49.410;8.698;2022-12-18T14:57:44;35.17;;;20.43;;
10493;SDS011;5294;49.410;8.698;2022-12-18T15:00:15;37.73;;;23.17;;
10493;SDS011;5294;49.410;8.698;2022-12-18T15:02:43;35.07;;;21.10;;
10493;SDS011;5294;49.410;8.698;2022-12-18T15:07:40;34.67;;;19.83;;
10493;SDS011;5294;49.410;8.698;2022-12-18T15:12:41;37.57;;;22.23;;
10493;SDS011;5294;49.410;8.698;2022-12-18T15:18:09;37.40;;;19.93;;
10493;SDS011;5294;49.410;8.698;2022-12-18T15:20:41;36.07;;;20.87;;
10493;SDS011;5294;49.410;8.698;2022-12-18T15:25:58;36.67;;;20.63;;
10493;SDS011;5294;49.410;8.698;2022-12-18T15:31:30;36.47;;;21.60;;
10493;SDS011;5294;49.410;8.698;2022-12-18T15:36:24;34.83;;;22.07;;
10493;SDS011;5294;49.410;8.698;2022-12-18T15:38:55;34.80;;;20.07;;
10493;SDS011;5294;49.410;8.698;2022-12-18T15:41:22;31.80;;;19.37;;
10493;SDS011;5294;49.410;8.698;2022-12-18T15:43:51;33.27;;;18.53;;
10493;SDS011;5294;49.410;8.698;2022-12-18T15:46:21;35.90;;;20.57;;
10493;SDS011;5294;49.410;8.698;2022-12-18T15:51:17;31.57;;;19.20;;
10493;SDS011;5294;49.410;8.698;2022-12-18T15:53:46;34.33;;;19.53;;
10493;SDS011;5294;49.410;8.698;2022-12-18T15:56:15;33.23;;;18.47;;
10493;SDS011;5294;49.410;8.698;2022-12-18T15:59:04;32.93;;;19.40;;
10493;SDS011;5294;49.410;8.698;2022-12-18T16:01:30;36.47;;;21.77;;
10493;SDS011;5294;49.410;8.698;2022-12-18T16:03:56;35.13;;;20.57;;
10493;SDS011;5294;49.410;8.698;2022-12-18T16:06:25;32.97;;;20.50;;
10493;SDS011;5294;49.410;8.698;2022-12-18T16:08:53;32.10;;;18.73;;
10493;SDS011;5294;49.410;8.698;2022-12-18T16:11:22;35.30;;;19.93;;
10493;SDS011;5294;49.410;8.698;2022-12-18T16:14:12;30.13;;;17.03;;
10493;SDS011;5294;49.410;8.698;2022-12-18T16:16:44;36.00;;;21.30;;
10493;SDS011;5294;49.410;8.698;2022-12-18T16:19:10;36.73;;;20.63;;
10493;SDS011;5294;49.410;8.698;2022-12-18T16:21:36;34.23;;;21.50;;
10493;SDS011;5294;49.410;8.698;2022-12-18T16:24:07;32.70;;;19.13;;
10493;SDS011;5294;49.410;8.698;2022-12-18T16:26:38;33.63;;;19.57;;
10493;SDS011;5294;49.410;8.698;2022-12-18T16:29:04;33.40;;;18.90;;
10493;SDS011;5294;49.410;8.698;2022-12-18T16:31:32;36.03;;;21.10;;
10493;SDS011;5294;49.410;8.698;2022-12-18T16:36:36;35.70;;;19.13;;
10493;SDS011;5294;49.410;8.698;2022-12-18T16:39:05;34.93;;;20.23;;
10493;SDS011;5294;49.410;8.698;2022-12-18T16:41:31;40.10;;;24.17;;
10493;SDS011;5294;49.410;8.698;2022-12-18T16:43:58;31.70;;;20.27;;
10493;SDS011;5294;49.410;8.698;2022-12-18T16:46:24;32.30;;;19.73;;
10493;SDS011;5294;49.410;8.698;2022-12-18T16:48:52;33.70;;;19.70;;
10493;SDS011;5294;49.410;8.698;2022-12-18T16:51:18;37.80;;;20.93;;
10493;SDS011;5294;49.410;8.698;2022-12-18T16:53:44;33.73;;;20.27;;
10493;SDS011;5294;49.410;8.698;2022-12-18T16:56:12;33.87;;;18.10;;
10493;SDS011;5294;49.410;8.698;2022-12-18T16:58:38;33.80;;;19.17;;
10493;SDS011;5294;49.410;8.698;2022-12-18T17:01:07;34.27;;;20.93;;
10493;SDS011;5294;49.410;8.698;2022-12-18T17:03:34;32.47;;;19.10;;
10493;SDS011;5294;49.410;8.698;2022-12-18T17:06:05;28.20;;;16.83;;
10493;SDS011;5294;49.410;8.698;2022-12-18T17:08:31;38.77;;;22.47;;